KLEW/LEW METAR and TAF weather

Enter ICAO airport designator
Station Type Date Time Source
KLEW METAR 2020/01/23 05:56 UTC NOAA

KLEW 230556Z AUTO 00000KT 10SM CLR M13/M14 A3032 RMK AO2 SLP280 T11281144 11039 21128 56009 FZRANO


Station Type Date Time Source
KLEW Decoded METAR 2020/01/23 05:56 UTC NOAA

Auburn-Lewiston, ME, United States (KLEW) 44-03N 070-17W
Jan 23, 2020 - 12:56 AM EST / 2020.01.23 0556 UTC
Wind: Calm:0
Visibility: 10 mile(s):0
Sky conditions: clear
Temperature: 9.0 F (-12.8 C)
Dew Point: 6.1 F (-14.4 C)
Relative Humidity: 87%
Pressure (altimeter): 30.32 in. Hg (1026 hPa)
Pressure tendency: 0.03 inches (0.9 hPa) lower than three hours ago
ob: KLEW 230556Z AUTO 00000KT 10SM CLR M13/M14 A3032 RMK AO2 SLP280 T11281144 11039 21128 56009 FZRANO
cycle: 6

Station Type Date Time Source
KLEW TAF UTC NOAA

Error!

Example: see airport list